YXE weather

Saskatoon John G. Diefenbaker International Airport
Saskatoon, Saskatchewan, Canada

Public forecast

Using degrees Celsius for public forecast. Weather courtesy of forecast.io.

METAR (pilot weather report)

Retrieved 2019/03/18 17:00 UTC (44 minutes ago):

CYXE 181700Z 31012KT 15SM SKC 00/M03 A3013 RMK SLP232

TAF (pilot weather forecast)

Retrieved 2019/03/18 12:39 UTC (5 hours ago):

TAF CYXE 181138Z 1812/1912 22010KT P6SM FEW160 FM181800 34010KT P6SM FEW220 FM182300 30010KT P6SM SKC FM190800 22008KT P6SM FEW120 SCT200 RMK NXT FCST BY 181800Z